Weather at Tampa Padang Airport

Public forecast

Using degrees Celsius for public forecast. Weather courtesy of forecast.io.

Closest aviation weather report (METAR) to Tampa Padang Airport

Closest report is Sultan Aji Muhammad Sulaiman Sepinggan International Airport, 150.5 nm (278.7 km) WNW.

2022/12/08 00:00 (retrieved 37 minutes ago)

WALL 080000Z 24002KT 9999 FEW020 28/23 Q1009 NOSIG

Closest aviation forecast (TAF) to Tampa Padang Airport

Forecast is more than 12 hours old.

Closest forecast is Sultan Aji Muhammad Sulaiman Sepinggan International Airport, 150.5 nm (278.7 km) WNW.

2022/12/07 12:00 (retrieved 13 hours ago)

TAF WALL 071100Z 0712/0818 34003KT 9000 FEW020 TEMPO 0720/0723 FEW018CB